Time;durP1;ratioP1;P1;durP2;ratioP2;P2;SDS_P1;SDS_P2;PMS_P1;PMS_P2;Temp;Humidity;BMP_temperature;BMP_pressure;BME280_temperature;BME280_humidity;BME280_pressure;Samples;Min_cycle;Max_cycle;Signal;HPM_P1;HPM_P2
2022/01/12 00:00:57;;;;;;;0.70;0.60;;;;;;;;;;4176151;28;20216;-33
2022/01/12 00:02:58;;;;;;;1.38;0.50;;;;;;;;;;4176116;28;20136;-33
2022/01/12 00:04:59;;;;;;;0.60;0.50;;;;;;;;;;4175973;28;20064;-38
2022/01/12 00:07:00;;;;;;;1.25;0.77;;;;;;;;;;4175323;28;20126;-34
2022/01/12 00:09:06;;;;;;;0.70;0.63;;;;;;;;;;4175812;28;20075;-35
2022/01/12 00:11:07;;;;;;;0.70;0.60;;;;;;;;;;4177012;28;20057;-32
2022/01/12 00:13:08;;;;;;;0.77;0.60;;;;;;;;;;4177192;28;20139;-34
2022/01/12 00:15:09;;;;;;;0.80;0.80;;;;;;;;;;4177382;28;20626;-35
2022/01/12 00:17:10;;;;;;;0.60;0.40;;;;;;;;;;4177029;28;20093;-33
2022/01/12 00:19:11;;;;;;;0.80;0.80;;;;;;;;;;4177448;28;20096;-32
2022/01/12 00:21:12;;;;;;;0.77;0.52;;;;;;;;;;4177246;28;20068;-33
2022/01/12 00:23:15;;;;;;;1.52;0.95;;;;;;;;;;4174882;28;20166;-33
2022/01/12 00:34:16;;;;;;;0.70;0.52;;;;;;;;;;4176993;28;20049;-32
2022/01/12 00:36:18;;;;;;;0.50;0.50;;;;;;;;;;4175449;28;20061;-32
2022/01/12 00:38:20;;;;;;;0.70;0.55;;;;;;;;;;4175829;28;20433;-38
2022/01/12 00:40:21;;;;;;;0.65;0.50;;;;;;;;;;4175612;28;20056;-32
2022/01/12 00:42:25;;;;;;;0.70;0.50;;;;;;;;;;4176566;28;20107;-36
2022/01/12 00:44:33;;;;;;;0.50;0.47;;;;;;;;;;4175566;28;20102;-33
2022/01/12 00:46:35;;;;;;;0.50;0.40;;;;;;;;;;4176471;28;20441;-34
2022/01/12 00:48:36;;;;;;;0.82;0.55;;;;;;;;;;4173679;28;20101;-33
2022/01/12 00:50:38;;;;;;;0.82;0.55;;;;;;;;;;4175540;28;20136;-33
2022/01/12 00:52:39;;;;;;;1.05;0.65;;;;;;;;;;4175602;28;20056;-33
2022/01/12 00:54:40;;;;;;;0.40;0.40;;;;;;;;;;4176612;28;20507;-35
2022/01/12 00:56:41;;;;;;;0.90;0.68;;;;;;;;;;4174753;28;20138;-32
2022/01/12 00:58:42;;;;;;;0.80;0.73;;;;;;;;;;4177204;28;20049;-33
2022/01/12 01:00:43;;;;;;;0.80;0.60;;;;;;;;;;4177557;28;20049;-35
2022/01/12 01:02:44;;;;;;;0.70;0.60;;;;;;;;;;4176211;28;20098;-33
2022/01/12 01:04:45;;;;;;;0.73;0.60;;;;;;;;;;4176209;28;20069;-35
2022/01/12 01:06:46;;;;;;;0.85;0.52;;;;;;;;;;4175769;28;20056;-38
2022/01/12 01:08:51;;;;;;;0.40;0.40;;;;;;;;;;4158581;28;20053;-34
2022/01/12 01:10:56;;;;;;;0.50;0.50;;;;;;;;;;4173569;28;20104;-32
2022/01/12 01:12:57;;;;;;;0.52;0.45;;;;;;;;;;4173110;28;20040;-32
2022/01/12 01:15:04;;;;;;;0.63;0.60;;;;;;;;;;4174789;28;20049;-32
2022/01/12 01:26:26;;;;;;;0.50;0.50;;;;;;;;;;4173470;28;20049;-34
2022/01/12 01:28:27;;;;;;;0.98;0.68;;;;;;;;;;4172810;28;20049;-34
2022/01/12 01:30:31;;;;;;;0.75;0.52;;;;;;;;;;4156712;28;20049;-32
2022/01/12 01:32:35;;;;;;;0.73;0.63;;;;;;;;;;4174343;28;20146;-34
2022/01/12 01:34:42;;;;;;;0.75;0.60;;;;;;;;;;4174420;28;20052;-32
2022/01/12 01:36:45;;;;;;;0.50;0.50;;;;;;;;;;4173685;28;20057;-37
2022/01/12 01:38:46;;;;;;;0.52;0.40;;;;;;;;;;4175686;28;20452;-33
2022/01/12 01:40:47;;;;;;;0.73;0.60;;;;;;;;;;4174223;28;20339;-33
2022/01/12 01:53:54;;;;;;;;;;;;;;;;;;4174766;28;20159;-34
2022/01/12 01:55:58;;;;;;;0.88;0.60;;;;;;;;;;4172872;28;19920;-32
2022/01/12 01:57:59;;;;;;;0.80;0.60;;;;;;;;;;4174414;28;20117;-35
2022/01/12 02:00:03;;;;;;;1.02;0.50;;;;;;;;;;4172447;28;20350;-34
2022/01/12 02:02:12;;;;;;;1.45;0.70;;;;;;;;;;4172376;28;20083;-34
2022/01/12 02:04:13;;;;;;;0.85;0.50;;;;;;;;;;4172422;28;20053;-31
2022/01/12 02:06:15;;;;;;;0.95;0.70;;;;;;;;;;4172294;28;20049;-35
2022/01/12 02:08:19;;;;;;;0.40;0.40;;;;;;;;;;4171760;28;20175;-32
2022/01/12 02:10:29;;;;;;;1.13;0.65;;;;;;;;;;4157088;28;20133;-37
2022/01/12 02:12:31;;;;;;;1.00;0.73;;;;;;;;;;4172276;28;20401;-34
2022/01/12 02:14:32;;;;;;;1.27;0.70;;;;;;;;;;4154905;28;20085;-32
2022/01/12 02:16:49;;;;;;;0.70;0.50;;;;;;;;;;4172942;28;20479;-35
2022/01/12 02:19:16;;;;;;;0.85;0.60;;;;;;;;;;4173720;28;20151;-35
2022/01/12 02:39:57;;;;;;;1.25;0.52;;;;;;;;;;4173318;28;20053;-33
2022/01/12 02:41:58;;;;;;;0.68;0.57;;;;;;;;;;4173305;28;20444;-33
2022/01/12 02:50:47;;;;;;;0.80;0.63;;;;;;;;;;4173077;28;20093;-33
2022/01/12 02:55:08;;;;;;;0.60;0.60;;;;;;;;;;4173801;28;20076;-32
2022/01/12 02:57:10;;;;;;;0.52;0.52;;;;;;;;;;4171193;28;20088;-35
2022/01/12 02:59:11;;;;;;;0.88;0.70;;;;;;;;;;4173172;28;20040;-35
2022/01/12 03:03:21;;;;;;;1.00;0.70;;;;;;;;;;4171510;28;20049;-36
2022/01/12 03:07:25;;;;;;;0.73;0.50;;;;;;;;;;4171392;28;20049;-37
2022/01/12 03:09:26;;;;;;;0.75;0.57;;;;;;;;;;4171670;28;20106;-33
2022/01/12 03:11:28;;;;;;;0.60;0.60;;;;;;;;;;4173153;28;20162;-34
2022/01/12 03:13:34;;;;;;;1.10;0.80;;;;;;;;;;4172984;28;20068;-34
2022/01/12 03:15:40;;;;;;;0.70;0.60;;;;;;;;;;4172887;28;20465;-33
2022/01/12 03:17:41;;;;;;;0.60;0.60;;;;;;;;;;4174235;28;20435;-33
2022/01/12 03:19:43;;;;;;;0.95;0.60;;;;;;;;;;4172798;28;20362;-36
2022/01/12 03:21:44;;;;;;;1.02;0.80;;;;;;;;;;4155810;28;20064;-37
2022/01/12 03:23:46;;;;;;;0.60;0.55;;;;;;;;;;4171827;28;20419;-33
2022/01/12 03:25:49;;;;;;;0.63;0.60;;;;;;;;;;4171260;28;20086;-33
2022/01/12 03:27:56;;;;;;;0.60;0.50;;;;;;;;;;4171174;28;20096;-32
2022/01/12 03:29:57;;;;;;;0.95;0.77;;;;;;;;;;4171349;28;20420;-32
2022/01/12 03:32:00;;;;;;;1.38;0.60;;;;;;;;;;4171194;28;20049;-34
2022/01/12 03:34:11;;;;;;;0.80;0.70;;;;;;;;;;4171156;28;20053;-33
2022/01/12 03:36:28;;;;;;;0.65;0.65;;;;;;;;;;4173138;28;20158;-33
2022/01/12 03:38:29;;;;;;;0.88;0.73;;;;;;;;;;4170444;28;20519;-32
2022/01/12 03:40:30;;;;;;;0.80;0.60;;;;;;;;;;4171145;28;20101;-32
2022/01/12 03:42:32;;;;;;;0.82;0.70;;;;;;;;;;4171422;28;20040;-32
2022/01/12 03:44:33;;;;;;;0.82;0.75;;;;;;;;;;4171572;28;20100;-33
2022/01/12 03:46:46;;;;;;;0.80;0.65;;;;;;;;;;4171119;28;20362;-34
2022/01/12 03:48:48;;;;;;;0.70;0.50;;;;;;;;;;4171448;28;20099;-33
2022/01/12 03:50:49;;;;;;;1.98;0.52;;;;;;;;;;4171794;28;20093;-37
2022/01/12 03:52:50;;;;;;;1.38;0.70;;;;;;;;;;4172724;28;20076;-33
2022/01/12 03:54:51;;;;;;;0.90;0.70;;;;;;;;;;4171501;28;20436;-37
2022/01/12 03:56:52;;;;;;;0.73;0.60;;;;;;;;;;4173776;28;20085;-34
2022/01/12 03:58:54;;;;;;;1.23;0.93;;;;;;;;;;4171855;28;20140;-36
2022/01/12 04:00:55;;;;;;;0.77;0.68;;;;;;;;;;4171542;28;20049;-35
2022/01/12 04:02:56;;;;;;;0.90;0.63;;;;;;;;;;4171844;28;20045;-33
2022/01/12 04:05:10;;;;;;;0.60;0.60;;;;;;;;;;4174327;28;20483;-34
2022/01/12 04:09:31;;;;;;;0.90;0.50;;;;;;;;;;4171552;28;20401;-36
2022/01/12 04:11:33;;;;;;;0.98;0.80;;;;;;;;;;4170884;28;20546;-38
2022/01/12 04:13:33;;;;;;;0.70;0.63;;;;;;;;;;4170893;28;20238;-33
2022/01/12 04:15:35;;;;;;;0.88;0.60;;;;;;;;;;4170911;28;20147;-33
2022/01/12 04:17:36;;;;;;;0.75;0.68;;;;;;;;;;4171100;28;20393;-32
2022/01/12 04:19:37;;;;;;;0.82;0.63;;;;;;;;;;4171435;28;20147;-34
2022/01/12 04:21:45;;;;;;;0.75;0.60;;;;;;;;;;4172323;28;20118;-37
2022/01/12 04:23:46;;;;;;;0.90;0.77;;;;;;;;;;4172405;28;20053;-32
2022/01/12 04:25:52;;;;;;;1.13;0.82;;;;;;;;;;4172439;28;20133;-34
2022/01/12 04:27:53;;;;;;;0.65;0.60;;;;;;;;;;4172468;28;20085;-33
2022/01/12 04:29:54;;;;;;;1.10;0.77;;;;;;;;;;4172833;28;20092;-34
2022/01/12 04:31:55;;;;;;;0.75;0.70;;;;;;;;;;4172486;28;20399;-36
2022/01/12 04:33:56;;;;;;;0.82;0.65;;;;;;;;;;4174388;28;20095;-34
2022/01/12 04:35:57;;;;;;;1.20;0.88;;;;;;;;;;4172865;28;20096;-38
2022/01/12 04:37:59;;;;;;;1.02;0.70;;;;;;;;;;4173975;28;20097;-33
2022/01/12 04:40:00;;;;;;;0.98;0.63;;;;;;;;;;4159978;28;20080;-34
2022/01/12 04:42:01;;;;;;;1.48;0.80;;;;;;;;;;4176369;28;20107;-33
2022/01/12 04:44:03;;;;;;;0.70;0.70;;;;;;;;;;4175464;28;20405;-32
2022/01/12 04:50:09;;;;;;;1.30;0.93;;;;;;;;;;4175690;28;20118;-34
2022/01/12 04:52:10;;;;;;;0.80;0.68;;;;;;;;;;4173341;28;20461;-33
2022/01/12 04:54:12;;;;;;;1.00;0.63;;;;;;;;;;4175033;28;20492;-36
2022/01/12 04:56:13;;;;;;;0.70;0.70;;;;;;;;;;4173621;28;20057;-34
2022/01/12 04:58:15;;;;;;;1.25;0.80;;;;;;;;;;4173381;28;20053;-32
2022/01/12 05:00:17;;;;;;;0.95;0.80;;;;;;;;;;4175629;28;20049;-34
2022/01/12 05:07:24;;;;;;;0.82;0.70;;;;;;;;;;4173108;28;20091;-32
2022/01/12 05:13:59;;;;;;;1.40;0.60;;;;;;;;;;4173586;28;20049;-34
2022/01/12 05:16:03;;;;;;;0.90;0.75;;;;;;;;;;4173507;28;20048;-34
2022/01/12 05:18:05;;;;;;;1.05;0.75;;;;;;;;;;4173032;28;20155;-33
2022/01/12 05:20:06;;;;;;;1.10;0.95;;;;;;;;;;4175546;28;20061;-34
2022/01/12 05:22:08;;;;;;;0.70;0.63;;;;;;;;;;4175480;28;20487;-37
2022/01/12 05:24:10;;;;;;;0.60;0.60;;;;;;;;;;4174230;28;20418;-36
2022/01/12 05:26:12;;;;;;;0.93;0.70;;;;;;;;;;4174736;28;20097;-33
2022/01/12 05:28:13;;;;;;;1.27;1.10;;;;;;;;;;4173131;28;20148;-33
2022/01/12 05:30:14;;;;;;;1.00;0.82;;;;;;;;;;4175092;28;20049;-35
2022/01/12 05:32:17;;;;;;;0.93;0.80;;;;;;;;;;4173079;28;20085;-32
2022/01/12 05:34:18;;;;;;;1.42;1.00;;;;;;;;;;4174589;28;20055;-32
2022/01/12 05:36:19;;;;;;;1.65;1.42;;;;;;;;;;4173512;28;20052;-35
2022/01/12 05:38:23;;;;;;;1.35;1.10;;;;;;;;;;4155904;28;20049;-35
2022/01/12 05:40:24;;;;;;;1.23;1.02;;;;;;;;;;4174512;28;20079;-34
2022/01/12 05:42:27;;;;;;;1.90;1.50;;;;;;;;;;4172590;28;20041;-35
2022/01/12 05:44:28;;;;;;;1.40;1.10;;;;;;;;;;4172783;28;20049;-35
2022/01/12 05:46:31;;;;;;;1.85;1.30;;;;;;;;;;4156358;28;20115;-35
2022/01/12 05:50:59;;;;;;;1.90;1.48;;;;;;;;;;4172924;28;20430;-36
2022/01/12 05:53:01;;;;;;;1.48;1.30;;;;;;;;;;4172746;28;20091;-36
2022/01/12 05:55:03;;;;;;;1.88;1.45;;;;;;;;;;4173650;28;20056;-34
2022/01/12 05:57:04;;;;;;;2.38;1.63;;;;;;;;;;4172509;28;20074;-36
2022/01/12 05:59:05;;;;;;;2.15;1.73;;;;;;;;;;4172753;28;20090;-32
2022/01/12 06:01:06;;;;;;;1.63;1.42;;;;;;;;;;4172622;28;20049;-33
2022/01/12 06:03:07;;;;;;;1.80;1.40;;;;;;;;;;4174231;28;20049;-34
2022/01/12 06:05:09;;;;;;;1.50;1.33;;;;;;;;;;4172760;28;20057;-32
2022/01/12 06:07:10;;;;;;;1.88;1.58;;;;;;;;;;4172102;28;20085;-33
2022/01/12 06:09:11;;;;;;;2.28;1.40;;;;;;;;;;4173955;28;20507;-34
2022/01/12 06:11:12;;;;;;;2.25;1.63;;;;;;;;;;4172192;28;20049;-33
2022/01/12 06:13:14;;;;;;;2.05;1.50;;;;;;;;;;4172211;28;20072;-32
2022/01/12 06:15:15;;;;;;;2.42;1.77;;;;;;;;;;4172230;28;20099;-34
2022/01/12 06:17:16;;;;;;;2.20;2.00;;;;;;;;;;4172121;28;20086;-34
2022/01/12 06:19:18;;;;;;;1.85;1.40;;;;;;;;;;4155981;28;20172;-32
2022/01/12 06:21:32;;;;;;;2.38;1.85;;;;;;;;;;4172275;28;20104;-32
2022/01/12 06:23:37;;;;;;;3.17;1.90;;;;;;;;;;4171680;28;20068;-32
2022/01/12 06:25:38;;;;;;;1.98;1.60;;;;;;;;;;4172227;28;20453;-33
2022/01/12 06:27:48;;;;;;;1.83;1.40;;;;;;;;;;4171974;28;20499;-33
2022/01/12 06:30:02;;;;;;;1.73;1.40;;;;;;;;;;4173568;28;20446;-36
2022/01/12 06:32:04;;;;;;;2.50;1.60;;;;;;;;;;4173495;28;20061;-38
2022/01/12 06:34:04;;;;;;;2.15;1.95;;;;;;;;;;4171795;28;20064;-38
2022/01/12 06:36:06;;;;;;;2.22;1.63;;;;;;;;;;4171565;28;20180;-37
2022/01/12 06:38:07;;;;;;;2.13;1.70;;;;;;;;;;4171118;28;20053;-32
2022/01/12 06:40:09;;;;;;;2.33;1.63;;;;;;;;;;4172974;28;20374;-39
2022/01/12 06:42:10;;;;;;;2.00;1.52;;;;;;;;;;4173137;28;20501;-34
2022/01/12 06:44:16;;;;;;;2.03;1.50;;;;;;;;;;4173263;28;20504;-37
2022/01/12 06:46:23;;;;;;;1.92;1.60;;;;;;;;;;4173007;28;20151;-33
2022/01/12 06:48:25;;;;;;;2.20;2.00;;;;;;;;;;4173322;28;20061;-33
2022/01/12 06:50:27;;;;;;;1.73;1.45;;;;;;;;;;4171586;28;20057;-33
2022/01/12 06:52:28;;;;;;;2.05;1.65;;;;;;;;;;4171066;28;20127;-33
2022/01/12 06:54:29;;;;;;;2.65;1.80;;;;;;;;;;4171241;28;20045;-36
2022/01/12 06:56:32;;;;;;;1.90;1.70;;;;;;;;;;4179296;28;20053;-34
2022/01/12 06:58:33;;;;;;;1.75;1.30;;;;;;;;;;4176935;28;20045;-33
2022/01/12 07:00:34;;;;;;;2.00;1.73;;;;;;;;;;4178689;28;20441;-32
2022/01/12 07:02:36;;;;;;;2.58;1.70;;;;;;;;;;4181083;28;20052;-33
2022/01/12 07:04:38;;;;;;;1.50;1.40;;;;;;;;;;4186293;28;20136;-34
2022/01/12 07:06:40;;;;;;;2.35;1.95;;;;;;;;;;4188491;28;20072;-37
2022/01/12 07:08:41;;;;;;;2.00;1.80;;;;;;;;;;4186230;28;20460;-35
2022/01/12 07:10:47;;;;;;;2.38;1.90;;;;;;;;;;4180845;28;20513;-33
2022/01/12 07:12:59;;;;;;;2.55;1.80;;;;;;;;;;4177123;28;20048;-34
2022/01/12 07:15:00;;;;;;;1.70;1.50;;;;;;;;;;4179758;28;20524;-35
2022/01/12 07:17:01;;;;;;;2.22;1.70;;;;;;;;;;4183800;28;20105;-34
2022/01/12 07:19:02;;;;;;;2.20;1.70;;;;;;;;;;4181957;28;20091;-33
2022/01/12 07:21:05;;;;;;;2.22;1.77;;;;;;;;;;4174715;28;20147;-32
2022/01/12 07:23:06;;;;;;;2.60;1.77;;;;;;;;;;4179649;28;20399;-34
2022/01/12 07:25:08;;;;;;;2.75;1.83;;;;;;;;;;4172153;28;20457;-32
2022/01/12 07:27:09;;;;;;;2.38;1.65;;;;;;;;;;4175095;28;20052;-36
2022/01/12 07:29:11;;;;;;;2.22;1.63;;;;;;;;;;4183287;28;20099;-34
2022/01/12 07:31:12;;;;;;;2.00;1.75;;;;;;;;;;4178367;28;20073;-35
2022/01/12 07:33:13;;;;;;;2.35;1.75;;;;;;;;;;4179512;28;20542;-38
2022/01/12 07:35:14;;;;;;;3.17;1.55;;;;;;;;;;4177817;28;20087;-33
2022/01/12 07:37:15;;;;;;;2.15;1.55;;;;;;;;;;4177516;28;20056;-34
2022/01/12 07:39:16;;;;;;;1.60;1.40;;;;;;;;;;4185253;28;20159;-32
2022/01/12 07:41:17;;;;;;;1.38;1.27;;;;;;;;;;4183646;28;20081;-34
2022/01/12 07:43:18;;;;;;;1.52;1.25;;;;;;;;;;4182857;28;20132;-34
2022/01/12 07:45:19;;;;;;;1.42;1.20;;;;;;;;;;4178221;28;20433;-42
2022/01/12 07:47:20;;;;;;;1.30;1.13;;;;;;;;;;4169857;28;20153;-34
2022/01/12 07:49:21;;;;;;;1.70;1.33;;;;;;;;;;4174998;28;20103;-35
2022/01/12 07:51:22;;;;;;;2.05;1.50;;;;;;;;;;4177609;28;20202;-37
2022/01/12 07:53:23;;;;;;;1.50;1.33;;;;;;;;;;4178384;28;20180;-34
2022/01/12 07:55:24;;;;;;;1.58;1.40;;;;;;;;;;4175971;28;20049;-35
2022/01/12 07:57:26;;;;;;;2.10;1.50;;;;;;;;;;4178272;28;20355;-33
2022/01/12 07:59:27;;;;;;;2.47;1.40;;;;;;;;;;4178876;28;20144;-35
2022/01/12 08:01:28;;;;;;;1.33;1.20;;;;;;;;;;4176371;28;20059;-34
2022/01/12 08:03:29;;;;;;;1.40;1.30;;;;;;;;;;4181750;28;20060;-33
2022/01/12 08:05:30;;;;;;;1.70;1.40;;;;;;;;;;4179065;28;20426;-37
2022/01/12 08:07:35;;;;;;;1.50;1.33;;;;;;;;;;4173592;28;20480;-38
2022/01/12 08:09:37;;;;;;;2.08;1.30;;;;;;;;;;4175822;28;20049;-34
2022/01/12 08:11:38;;;;;;;1.63;1.35;;;;;;;;;;4174241;28;20057;-37
2022/01/12 08:13:39;;;;;;;1.27;1.10;;;;;;;;;;4183823;28;20452;-34
2022/01/12 08:15:40;;;;;;;1.65;1.50;;;;;;;;;;4185527;28;20419;-35
2022/01/12 08:17:41;;;;;;;1.95;1.25;;;;;;;;;;4186194;28;20432;-32
2022/01/12 08:19:42;;;;;;;1.65;1.20;;;;;;;;;;4180369;28;20081;-38
2022/01/12 08:21:43;;;;;;;1.00;0.90;;;;;;;;;;4178611;28;20147;-40
2022/01/12 08:23:44;;;;;;;1.73;1.20;;;;;;;;;;4169512;28;20088;-38
2022/01/12 08:25:45;;;;;;;1.30;1.08;;;;;;;;;;4175858;28;20061;-33
2022/01/12 08:27:46;;;;;;;1.27;0.93;;;;;;;;;;4176769;28;20372;-34
2022/01/12 08:29:50;;;;;;;2.08;1.23;;;;;;;;;;4176643;28;20044;-36
2022/01/12 08:31:50;;;;;;;1.83;1.20;;;;;;;;;;4176765;28;20100;-33
2022/01/12 08:33:51;;;;;;;1.65;1.23;;;;;;;;;;4175689;28;20534;-33
2022/01/12 08:35:53;;;;;;;2.53;1.55;;;;;;;;;;4178086;28;20122;-32
2022/01/12 08:37:54;;;;;;;1.35;1.08;;;;;;;;;;4174362;28;20111;-33
2022/01/12 08:39:55;;;;;;;1.10;1.00;;;;;;;;;;4177544;28;20338;-35
2022/01/12 08:41:56;;;;;;;1.75;1.27;;;;;;;;;;4177580;28;20354;-34
2022/01/12 08:43:58;;;;;;;1.85;1.25;;;;;;;;;;4177011;28;20671;-32
2022/01/12 08:45:59;;;;;;;1.35;1.00;;;;;;;;;;4180183;28;20387;-36
2022/01/12 08:48:00;;;;;;;2.67;1.15;;;;;;;;;;4178396;28;20056;-41
2022/01/12 08:50:00;;;;;;;1.35;1.00;;;;;;;;;;4176834;28;20145;-32
2022/01/12 08:52:02;;;;;;;1.30;0.98;;;;;;;;;;4174557;28;20231;-33
2022/01/12 08:54:04;;;;;;;2.08;1.00;;;;;;;;;;4177816;28;20045;-32
2022/01/12 08:56:05;;;;;;;1.27;1.00;;;;;;;;;;4178193;28;20048;-36
2022/01/12 08:58:06;;;;;;;2.13;1.15;;;;;;;;;;4176424;28;20182;-33
2022/01/12 09:00:08;;;;;;;3.00;0.90;;;;;;;;;;4180720;28;20457;-37
2022/01/12 09:02:11;;;;;;;1.67;1.25;;;;;;;;;;4184437;28;20152;-32
2022/01/12 09:04:12;;;;;;;1.25;0.80;;;;;;;;;;4183589;28;20318;-34
2022/01/12 09:06:13;;;;;;;2.28;1.00;;;;;;;;;;4182461;28;20094;-38
2022/01/12 09:08:14;;;;;;;1.40;0.95;;;;;;;;;;4180861;28;20494;-39
2022/01/12 09:10:15;;;;;;;1.00;0.75;;;;;;;;;;4182642;28;20056;-40
2022/01/12 09:12:17;;;;;;;2.30;0.73;;;;;;;;;;4179277;28;20193;-37
2022/01/12 09:14:18;;;;;;;3.90;1.30;;;;;;;;;;4180646;28;20053;-33
2022/01/12 09:16:19;;;;;;;0.95;0.70;;;;;;;;;;4180499;28;20424;-33
2022/01/12 09:18:20;;;;;;;1.55;1.02;;;;;;;;;;4186919;28;20391;-32
2022/01/12 09:20:21;;;;;;;1.70;1.10;;;;;;;;;;4187057;28;20063;-33
2022/01/12 09:22:22;;;;;;;1.02;0.93;;;;;;;;;;4186363;28;20056;-35
2022/01/12 09:24:23;;;;;;;1.70;0.90;;;;;;;;;;4183176;28;20145;-35
2022/01/12 09:26:24;;;;;;;1.88;0.93;;;;;;;;;;4181450;28;20330;-34
2022/01/12 09:28:25;;;;;;;1.15;0.85;;;;;;;;;;4181859;28;20231;-35
2022/01/12 09:30:27;;;;;;;1.45;0.90;;;;;;;;;;4177942;28;20107;-34
2022/01/12 09:32:28;;;;;;;1.63;0.90;;;;;;;;;;4184596;28;20089;-34
2022/01/12 09:34:29;;;;;;;1.80;0.82;;;;;;;;;;4175467;28;20386;-32
2022/01/12 09:36:30;;;;;;;1.30;0.93;;;;;;;;;;4178630;28;20108;-37
2022/01/12 09:38:33;;;;;;;1.00;0.73;;;;;;;;;;4175801;28;20420;-37
2022/01/12 09:40:33;;;;;;;0.95;0.70;;;;;;;;;;4180964;28;20049;-37
2022/01/12 09:42:34;;;;;;;1.02;0.70;;;;;;;;;;4175476;28;20140;-40
2022/01/12 09:44:37;;;;;;;0.98;0.80;;;;;;;;;;4175884;28;20129;-35
2022/01/12 09:46:39;;;;;;;1.00;0.80;;;;;;;;;;4175736;28;20072;-34
2022/01/12 09:48:40;;;;;;;1.05;0.90;;;;;;;;;;4174952;28;20521;-33
2022/01/12 09:50:40;;;;;;;0.88;0.70;;;;;;;;;;4176649;28;20499;-35
2022/01/12 09:52:41;;;;;;;1.20;0.80;;;;;;;;;;4172425;28;20071;-33
2022/01/12 09:54:42;;;;;;;2.25;0.85;;;;;;;;;;4175323;28;20124;-39
2022/01/12 09:56:44;;;;;;;1.20;1.00;;;;;;;;;;4178799;28;20106;-33
2022/01/12 09:58:47;;;;;;;1.33;0.73;;;;;;;;;;4174087;28;20164;-34
2022/01/12 10:00:55;;;;;;;1.45;0.90;;;;;;;;;;4176982;28;20425;-34
2022/01/12 10:02:56;;;;;;;0.88;0.80;;;;;;;;;;4176499;28;20092;-33
2022/01/12 10:05:05;;;;;;;2.88;0.80;;;;;;;;;;4176611;28;20040;-32
2022/01/12 10:07:06;;;;;;;0.90;0.60;;;;;;;;;;4174016;28;20049;-31
2022/01/12 10:09:07;;;;;;;0.85;0.60;;;;;;;;;;4175609;28;20166;-35
2022/01/12 10:11:10;;;;;;;0.70;0.68;;;;;;;;;;4173683;28;20120;-37
2022/01/12 10:13:17;;;;;;;0.75;0.60;;;;;;;;;;4176343;28;20501;-31
2022/01/12 10:15:17;;;;;;;1.63;0.80;;;;;;;;;;4182042;28;20132;-35
2022/01/12 10:17:29;;;;;;;0.75;0.68;;;;;;;;;;4177676;28;20151;-33
2022/01/12 10:19:31;;;;;;;0.77;0.60;;;;;;;;;;4183703;28;20342;-38
2022/01/12 10:21:38;;;;;;;0.88;0.60;;;;;;;;;;4183685;28;20087;-35
2022/01/12 10:23:40;;;;;;;1.27;0.70;;;;;;;;;;4183376;28;20057;-32
2022/01/12 10:25:48;;;;;;;1.05;0.90;;;;;;;;;;4185014;28;20044;-33
2022/01/12 10:27:49;;;;;;;0.60;0.43;;;;;;;;;;4180890;28;20543;-37
2022/01/12 10:29:58;;;;;;;1.52;0.70;;;;;;;;;;4181169;28;20134;-33
2022/01/12 10:32:01;;;;;;;0.88;0.60;;;;;;;;;;4185175;28;20048;-35
2022/01/12 10:34:03;;;;;;;0.75;0.50;;;;;;;;;;4177071;28;20095;-35
2022/01/12 10:36:06;;;;;;;1.02;0.40;;;;;;;;;;4177088;28;20041;-37
2022/01/12 10:38:09;;;;;;;0.63;0.40;;;;;;;;;;4178442;28;20143;-35
2022/01/12 10:40:10;;;;;;;2.90;0.63;;;;;;;;;;4177396;28;20122;-34
2022/01/12 10:42:13;;;;;;;0.52;0.43;;;;;;;;;;4177473;28;20053;-33
2022/01/12 10:44:24;;;;;;;0.60;0.40;;;;;;;;;;4175395;28;20083;-36
2022/01/12 10:46:26;;;;;;;0.45;0.40;;;;;;;;;;4176906;28;20060;-32
2022/01/12 10:48:39;;;;;;;1.02;0.65;;;;;;;;;;4178155;28;20057;-36
2022/01/12 10:50:40;;;;;;;0.73;0.40;;;;;;;;;;4179680;28;20083;-39
2022/01/12 10:52:49;;;;;;;0.68;0.50;;;;;;;;;;4179111;28;20514;-34
2022/01/12 10:54:51;;;;;;;2.08;0.60;;;;;;;;;;4182702;28;20048;-33
2022/01/12 10:56:52;;;;;;;0.70;0.70;;;;;;;;;;4178821;28;20057;-34
2022/01/12 10:58:54;;;;;;;0.57;0.57;;;;;;;;;;4179631;28;20048;-33
2022/01/12 11:00:56;;;;;;;0.57;0.55;;;;;;;;;;4179029;28;20053;-34
2022/01/12 11:02:59;;;;;;;1.02;0.60;;;;;;;;;;4171377;28;20048;-36
2022/01/12 11:05:00;;;;;;;0.80;0.50;;;;;;;;;;4175123;28;21130;-36
2022/01/12 11:07:01;;;;;;;1.08;0.50;;;;;;;;;;4173337;28;20104;-33
2022/01/12 11:09:03;;;;;;;0.80;0.50;;;;;;;;;;4176179;28;20121;-36
2022/01/12 11:11:04;;;;;;;0.60;0.47;;;;;;;;;;4175577;28;20135;-38
2022/01/12 11:13:05;;;;;;;1.05;0.50;;;;;;;;;;4172190;28;20347;-32
2022/01/12 11:15:08;;;;;;;0.50;0.40;;;;;;;;;;4174783;28;20065;-34
2022/01/12 11:17:09;;;;;;;0.70;0.50;;;;;;;;;;4179377;28;20124;-37
2022/01/12 11:19:10;;;;;;;0.93;0.43;;;;;;;;;;4173540;28;20228;-37
2022/01/12 11:21:20;;;;;;;0.85;0.43;;;;;;;;;;4174035;28;20055;-39
2022/01/12 11:23:21;;;;;;;;;;;;;;;;;;4174707;28;20489;-33
2022/01/12 11:25:28;;;;;;;0.88;0.68;;;;;;;;;;4174521;28;19927;-34
2022/01/12 11:27:29;;;;;;;0.28;0.28;;;;;;;;;;4173559;28;20068;-34
2022/01/12 11:29:34;;;;;;;1.23;0.52;;;;;;;;;;4176621;28;20113;-34
2022/01/12 11:31:38;;;;;;;1.20;0.50;;;;;;;;;;4175004;28;20441;-39
2022/01/12 11:33:40;;;;;;;0.80;0.40;;;;;;;;;;4174247;28;20435;-33
2022/01/12 11:35:43;;;;;;;1.10;0.43;;;;;;;;;;4170680;28;20650;-38
2022/01/12 11:37:47;;;;;;;2.08;0.55;;;;;;;;;;4169781;28;20160;-32
2022/01/12 11:39:48;;;;;;;0.70;0.40;;;;;;;;;;4173109;28;20175;-31
2022/01/12 11:41:49;;;;;;;1.85;0.80;;;;;;;;;;4175011;28;20561;-36
2022/01/12 11:43:52;;;;;;;0.80;0.47;;;;;;;;;;4176470;28;20167;-36
2022/01/12 11:46:19;;;;;;;0.60;0.43;;;;;;;;;;4173007;28;20147;-39
2022/01/12 11:48:28;;;;;;;1.00;0.60;;;;;;;;;;4177244;28;20060;-36
2022/01/12 11:50:29;;;;;;;0.43;0.38;;;;;;;;;;4175870;28;20225;-37
2022/01/12 11:52:30;;;;;;;0.95;0.32;;;;;;;;;;4175077;28;20078;-35
2022/01/12 11:54:39;;;;;;;1.77;0.47;;;;;;;;;;4174127;28;20055;-36
2022/01/12 11:56:52;;;;;;;0.60;0.60;;;;;;;;;;4175901;28;20358;-33
2022/01/12 11:58:58;;;;;;;0.88;0.57;;;;;;;;;;4175229;28;20109;-34
2022/01/12 12:00:59;;;;;;;0.63;0.45;;;;;;;;;;4177282;28;20096;-34
2022/01/12 12:03:01;;;;;;;0.63;0.32;;;;;;;;;;4174494;28;20391;-34
2022/01/12 12:05:08;;;;;;;1.30;0.45;;;;;;;;;;4176249;28;20048;-33
2022/01/12 12:07:14;;;;;;;0.47;0.40;;;;;;;;;;4179494;28;20062;-35
2022/01/12 12:09:18;;;;;;;1.58;0.50;;;;;;;;;;4171602;28;20500;-40
2022/01/12 12:11:19;;;;;;;0.50;0.40;;;;;;;;;;4171229;28;20053;-36
2022/01/12 12:13:21;;;;;;;1.58;0.50;;;;;;;;;;4175239;28;20109;-36
2022/01/12 12:15:23;;;;;;;0.32;0.30;;;;;;;;;;4175994;28;20120;-35
2022/01/12 12:17:26;;;;;;;0.60;0.40;;;;;;;;;;4173565;28;20339;-33
2022/01/12 12:19:28;;;;;;;0.45;0.30;;;;;;;;;;4180411;28;20521;-33
2022/01/12 12:21:29;;;;;;;0.85;0.50;;;;;;;;;;4180764;28;20088;-36
2022/01/12 12:23:32;;;;;;;1.50;0.50;;;;;;;;;;4177146;28;20052;-40
2022/01/12 12:25:34;;;;;;;0.70;0.32;;;;;;;;;;4178772;28;20104;-40
2022/01/12 12:27:37;;;;;;;0.88;0.40;;;;;;;;;;4171855;28;20048;-39
2022/01/12 12:29:38;;;;;;;0.93;0.40;;;;;;;;;;4177743;28;20102;-36
2022/01/12 12:31:39;;;;;;;0.80;0.50;;;;;;;;;;4176476;28;20056;-39
2022/01/12 12:33:40;;;;;;;1.17;0.50;;;;;;;;;;4177327;28;20447;-39
2022/01/12 12:35:42;;;;;;;0.90;0.43;;;;;;;;;;4176083;28;20124;-38
2022/01/12 12:37:49;;;;;;;0.80;0.50;;;;;;;;;;4182100;28;21322;-36
2022/01/12 12:39:50;;;;;;;0.38;0.30;;;;;;;;;;4177488;28;20496;-35
2022/01/12 12:41:51;;;;;;;0.55;0.30;;;;;;;;;;4179988;28;20158;-40
2022/01/12 12:43:52;;;;;;;1.25;0.60;;;;;;;;;;4180142;28;20147;-35
2022/01/12 12:45:56;;;;;;;0.43;0.30;;;;;;;;;;4178090;28;20093;-37
2022/01/12 12:48:01;;;;;;;0.93;0.40;;;;;;;;;;4176178;28;20100;-37
2022/01/12 12:50:06;;;;;;;1.35;0.45;;;;;;;;;;4176748;28;20494;-38
2022/01/12 12:52:07;;;;;;;0.80;0.30;;;;;;;;;;4176943;28;20169;-40
2022/01/12 12:54:08;;;;;;;1.30;0.52;;;;;;;;;;4174424;28;20095;-36
2022/01/12 12:56:19;;;;;;;0.38;0.30;;;;;;;;;;4175873;28;20093;-38
2022/01/12 12:58:24;;;;;;;1.10;0.35;;;;;;;;;;4178806;28;20048;-37
2022/01/12 13:00:26;;;;;;;0.88;0.43;;;;;;;;;;4184165;28;20411;-37
2022/01/12 13:02:33;;;;;;;0.75;0.50;;;;;;;;;;4187323;28;20577;-35
2022/01/12 13:04:34;;;;;;;0.93;0.50;;;;;;;;;;4178580;28;20173;-35
2022/01/12 13:06:36;;;;;;;0.82;0.43;;;;;;;;;;4179872;28;20162;-36
2022/01/12 13:08:38;;;;;;;2.50;0.63;;;;;;;;;;4181477;28;21667;-37
2022/01/12 13:10:39;;;;;;;0.52;0.40;;;;;;;;;;4180429;28;20111;-35
2022/01/12 13:12:45;;;;;;;0.55;0.32;;;;;;;;;;4184120;28;20317;-41
2022/01/12 13:14:46;;;;;;;0.75;0.32;;;;;;;;;;4181837;28;20061;-39
2022/01/12 13:16:49;;;;;;;0.50;0.40;;;;;;;;;;4177592;28;20390;-33
2022/01/12 13:18:50;;;;;;;1.23;0.50;;;;;;;;;;4185487;28;20135;-33
2022/01/12 13:21:09;;;;;;;0.73;0.30;;;;;;;;;;4186911;28;20049;-33
2022/01/12 13:23:10;;;;;;;2.83;0.40;;;;;;;;;;4181231;28;20107;-39
2022/01/12 13:25:14;;;;;;;0.70;0.32;;;;;;;;;;4181759;28;20060;-34
2022/01/12 13:27:15;;;;;;;0.75;0.50;;;;;;;;;;4181677;28;20507;-39
2022/01/12 13:29:17;;;;;;;0.73;0.30;;;;;;;;;;4179548;28;20437;-36
2022/01/12 13:31:19;;;;;;;1.00;0.30;;;;;;;;;;4181534;28;20048;-35
2022/01/12 13:33:28;;;;;;;0.50;0.20;;;;;;;;;;4175935;28;20083;-36
2022/01/12 13:35:33;;;;;;;0.40;0.30;;;;;;;;;;4179569;28;20048;-38